sensor_id;sensor_type;location;lat;lon;timestamp;pressure;altitude;pressure_sealevel;temperature;humidity
72370;BME280;60343;-32.030;115.880;2022-09-19T00:01:58;100905.03;;;17.88;70.09
72370;BME280;60343;-32.030;115.880;2022-09-19T00:04:28;100913.63;;;17.85;68.36
72370;BME280;60343;-32.030;115.880;2022-09-19T00:06:57;100913.75;;;17.59;69.44
72370;BME280;60343;-32.030;115.880;2022-09-19T00:09:27;100910.22;;;16.88;68.76
72370;BME280;60343;-32.030;115.880;2022-09-19T00:11:56;100914.78;;;16.81;67.88
72370;BME280;60343;-32.030;115.880;2022-09-19T00:14:31;100906.41;;;17.08;66.78
72370;BME280;60343;-32.030;115.880;2022-09-19T00:17:02;100915.44;;;16.69;67.39
72370;BME280;60343;-32.030;115.880;2022-09-19T00:19:31;100911.72;;;16.64;68.35
72370;BME280;60343;-32.030;115.880;2022-09-19T00:22:01;100916.81;;;17.11;70.24
72370;BME280;60343;-32.030;115.880;2022-09-19T00:24:30;100922.66;;;17.66;66.32
72370;BME280;60343;-32.030;115.880;2022-09-19T00:26:58;100919.06;;;17.79;64.72
72370;BME280;60343;-32.030;115.880;2022-09-19T00:29:33;100922.78;;;17.27;70.26
72370;BME280;60343;-32.030;115.880;2022-09-19T00:32:02;100928.13;;;16.69;70.59
72370;BME280;60343;-32.030;115.880;2022-09-19T00:34:30;100932.66;;;16.09;71.53
72370;BME280;60343;-32.030;115.880;2022-09-19T00:36:59;100940.16;;;15.60;71.12
72370;BME280;60343;-32.030;115.880;2022-09-19T00:39:27;100952.25;;;15.29;75.49
72370;BME280;60343;-32.030;115.880;2022-09-19T00:41:55;100955.06;;;15.15;79.89
72370;BME280;60343;-32.030;115.880;2022-09-19T00:47:39;100973.63;;;14.69;82.13
72370;BME280;60343;-32.030;115.880;2022-09-19T00:50:12;100989.16;;;14.45;83.23
72370;BME280;60343;-32.030;115.880;2022-09-19T00:52:45;100996.69;;;14.14;84.63
72370;BME280;60343;-32.030;115.880;2022-09-19T00:55:14;100989.22;;;13.95;84.53
72370;BME280;60343;-32.030;115.880;2022-09-19T00:57:55;100990.59;;;13.69;82.07
72370;BME280;60343;-32.030;115.880;2022-09-19T01:00:26;100992.41;;;13.48;82.16
72370;BME280;60343;-32.030;115.880;2022-09-19T01:03:01;100999.06;;;13.52;81.10
72370;BME280;60343;-32.030;115.880;2022-09-19T01:05:34;100999.16;;;13.44;82.35
72370;BME280;60343;-32.030;115.880;2022-09-19T01:08:21;101021.88;;;13.41;83.25
72370;BME280;60343;-32.030;115.880;2022-09-19T01:11:08;101038.56;;;13.51;83.85
72370;BME280;60343;-32.030;115.880;2022-09-19T01:13:47;101042.81;;;13.60;84.46
72370;BME280;60343;-32.030;115.880;2022-09-19T01:16:21;101054.41;;;13.75;85.22
72370;BME280;60343;-32.030;115.880;2022-09-19T01:18:59;101047.34;;;13.74;83.94
72370;BME280;60343;-32.030;115.880;2022-09-19T01:21:36;101040.56;;;13.79;80.85
72370;BME280;60343;-32.030;115.880;2022-09-19T01:24:23;101033.63;;;13.69;82.04
72370;BME280;60343;-32.030;115.880;2022-09-19T01:30:01;101010.38;;;13.62;82.32
72370;BME280;60343;-32.030;115.880;2022-09-19T01:32:34;101002.94;;;13.64;82.70
72370;BME280;60343;-32.030;115.880;2022-09-19T01:35:06;101001.75;;;13.66;84.55
72370;BME280;60343;-32.030;115.880;2022-09-19T01:37:38;101011.75;;;13.72;84.74
72370;BME280;60343;-32.030;115.880;2022-09-19T01:40:10;101011.47;;;13.82;83.53
72370;BME280;60343;-32.030;115.880;2022-09-19T01:43:38;101007.94;;;14.17;82.25
72370;BME280;60343;-32.030;115.880;2022-09-19T01:45:56;101006.03;;;15.03;82.32
72370;BME280;60343;-32.030;115.880;2022-09-19T01:48:35;101012.38;;;16.05;73.53
72370;BME280;60343;-32.030;115.880;2022-09-19T01:51:17;101020.03;;;16.95;66.52
72370;BME280;60343;-32.030;115.880;2022-09-19T01:54:04;101023.03;;;17.58;64.16
72370;BME280;60343;-32.030;115.880;2022-09-19T01:56:41;101044.72;;;18.16;66.48
72370;BME280;60343;-32.030;115.880;2022-09-19T01:59:23;101047.41;;;18.60;64.92
72370;BME280;60343;-32.030;115.880;2022-09-19T02:02:09;101052.97;;;18.97;62.17
72370;BME280;60343;-32.030;115.880;2022-09-19T02:04:41;101053.63;;;19.17;60.79
72370;BME280;60343;-32.030;115.880;2022-09-19T02:07:18;101057.78;;;19.19;62.90
72370;BME280;60343;-32.030;115.880;2022-09-19T02:09:52;101064.38;;;19.30;58.72
72370;BME280;60343;-32.030;115.880;2022-09-19T02:12:25;101063.53;;;19.54;59.88
72370;BME280;60343;-32.030;115.880;2022-09-19T02:14:55;101062.41;;;19.37;60.13
72370;BME280;60343;-32.030;115.880;2022-09-19T02:17:35;101076.50;;;19.27;58.95
72370;BME280;60343;-32.030;115.880;2022-09-19T02:20:07;101084.44;;;19.54;56.33
72370;BME280;60343;-32.030;115.880;2022-09-19T02:22:39;101087.84;;;20.04;60.00
72370;BME280;60343;-32.030;115.880;2022-09-19T02:25:12;101091.63;;;19.66;58.05
72370;BME280;60343;-32.030;115.880;2022-09-19T02:27:45;101101.00;;;18.96;60.03
72370;BME280;60343;-32.030;115.880;2022-09-19T02:30:15;101095.53;;;18.27;62.25
72370;BME280;60343;-32.030;115.880;2022-09-19T02:32:50;101102.25;;;18.18;60.95
72370;BME280;60343;-32.030;115.880;2022-09-19T02:35:22;101108.56;;;17.98;58.29
72370;BME280;60343;-32.030;115.880;2022-09-19T02:37:54;101111.56;;;17.51;57.81
72370;BME280;60343;-32.030;115.880;2022-09-19T02:40:27;101118.22;;;17.35;61.08
72370;BME280;60343;-32.030;115.880;2022-09-19T02:43:00;101109.50;;;17.27;61.18
72370;BME280;60343;-32.030;115.880;2022-09-19T02:45:34;101103.25;;;18.23;61.34
72370;BME280;60343;-32.030;115.880;2022-09-19T02:48:13;101110.03;;;18.46;57.98
72370;BME280;60343;-32.030;115.880;2022-09-19T02:50:48;101111.28;;;18.43;58.56
72370;BME280;60343;-32.030;115.880;2022-09-19T02:53:21;101120.16;;;18.19;61.23
72370;BME280;60343;-32.030;115.880;2022-09-19T02:55:52;101120.34;;;18.30;56.21
72370;BME280;60343;-32.030;115.880;2022-09-19T02:58:23;101117.28;;;18.96;52.07
72370;BME280;60343;-32.030;115.880;2022-09-19T03:00:55;101115.56;;;19.76;51.56
72370;BME280;60343;-32.030;115.880;2022-09-19T03:03:33;101115.59;;;19.88;49.21
72370;BME280;60343;-32.030;115.880;2022-09-19T03:06:04;101133.69;;;19.57;53.48
72370;BME280;60343;-32.030;115.880;2022-09-19T03:08:34;101112.44;;;18.67;53.65
72370;BME280;60343;-32.030;115.880;2022-09-19T03:11:06;101129.41;;;17.91;53.72
72370;BME280;60343;-32.030;115.880;2022-09-19T03:13:36;101122.81;;;17.22;58.24
72370;BME280;60343;-32.030;115.880;2022-09-19T03:16:07;101135.28;;;17.03;57.66
72370;BME280;60343;-32.030;115.880;2022-09-19T03:18:44;101137.16;;;16.89;59.46
72370;BME280;60343;-32.030;115.880;2022-09-19T03:21:13;101141.94;;;16.87;58.92
72370;BME280;60343;-32.030;115.880;2022-09-19T03:23:48;101142.38;;;17.30;61.53
72370;BME280;60343;-32.030;115.880;2022-09-19T03:26:20;101140.69;;;17.82;58.03
72370;BME280;60343;-32.030;115.880;2022-09-19T03:28:49;101137.22;;;18.26;58.61
72370;BME280;60343;-32.030;115.880;2022-09-19T03:31:17;101137.84;;;18.72;57.08
72370;BME280;60343;-32.030;115.880;2022-09-19T03:33:52;101132.41;;;19.10;56.85
72370;BME280;60343;-32.030;115.880;2022-09-19T03:36:20;101140.75;;;19.34;56.62
72370;BME280;60343;-32.030;115.880;2022-09-19T03:38:48;101147.41;;;19.38;53.07
72370;BME280;60343;-32.030;115.880;2022-09-19T03:41:18;101150.78;;;19.08;54.22
72370;BME280;60343;-32.030;115.880;2022-09-19T03:43:47;101153.66;;;19.13;54.42
72370;BME280;60343;-32.030;115.880;2022-09-19T03:46:16;101148.03;;;19.15;53.01
72370;BME280;60343;-32.030;115.880;2022-09-19T03:48:51;101153.59;;;19.51;54.85
72370;BME280;60343;-32.030;115.880;2022-09-19T03:51:19;101161.66;;;19.83;53.29
72370;BME280;60343;-32.030;115.880;2022-09-19T03:53:47;101153.94;;;19.80;53.17
72370;BME280;60343;-32.030;115.880;2022-09-19T03:56:16;101160.44;;;19.79;52.33
72370;BME280;60343;-32.030;115.880;2022-09-19T03:58:45;101153.28;;;19.84;51.95
72370;BME280;60343;-32.030;115.880;2022-09-19T04:01:13;101160.06;;;19.75;50.68
72370;BME280;60343;-32.030;115.880;2022-09-19T04:03:41;101162.25;;;20.03;50.90
72370;BME280;60343;-32.030;115.880;2022-09-19T04:06:15;101170.41;;;19.66;51.60
72370;BME280;60343;-32.030;115.880;2022-09-19T04:08:44;101177.25;;;19.44;51.67
72370;BME280;60343;-32.030;115.880;2022-09-19T04:11:12;101184.22;;;19.02;54.56
72370;BME280;60343;-32.030;115.880;2022-09-19T04:13:40;101192.59;;;19.01;53.84
72370;BME280;60343;-32.030;115.880;2022-09-19T04:16:08;101195.78;;;18.91;54.56
72370;BME280;60343;-32.030;115.880;2022-09-19T04:18:36;101184.75;;;18.86;53.85
72370;BME280;60343;-32.030;115.880;2022-09-19T04:21:04;101192.22;;;19.22;53.42
72370;BME280;60343;-32.030;115.880;2022-09-19T04:23:38;101189.78;;;19.45;52.99
72370;BME280;60343;-32.030;115.880;2022-09-19T04:26:07;101198.31;;;19.17;53.02
72370;BME280;60343;-32.030;115.880;2022-09-19T04:28:35;101194.50;;;19.25;53.62
72370;BME280;60343;-32.030;115.880;2022-09-19T04:31:03;101200.44;;;19.40;51.26
72370;BME280;60343;-32.030;115.880;2022-09-19T04:33:34;101191.69;;;19.38;52.56
72370;BME280;60343;-32.030;115.880;2022-09-19T04:36:03;101196.28;;;19.44;52.27
72370;BME280;60343;-32.030;115.880;2022-09-19T04:41:25;101192.03;;;19.73;51.25
72370;BME280;60343;-32.030;115.880;2022-09-19T04:43:53;101213.94;;;19.78;51.15
72370;BME280;60343;-32.030;115.880;2022-09-19T04:46:22;101202.13;;;19.91;50.85
72370;BME280;60343;-32.030;115.880;2022-09-19T04:48:50;101205.75;;;19.85;51.38
72370;BME280;60343;-32.030;115.880;2022-09-19T04:51:18;101211.19;;;20.03;50.28
72370;BME280;60343;-32.030;115.880;2022-09-19T04:54:44;101205.78;;;20.21;48.72
72370;BME280;60343;-32.030;115.880;2022-09-19T04:56:47;101205.94;;;19.83;51.24
72370;BME280;60343;-32.030;115.880;2022-09-19T04:59:15;101203.91;;;19.79;50.94
72370;BME280;60343;-32.030;115.880;2022-09-19T05:01:43;101208.63;;;19.65;50.80
72370;BME280;60343;-32.030;115.880;2022-09-19T05:04:11;101220.69;;;19.94;51.08
72370;BME280;60343;-32.030;115.880;2022-09-19T05:06:39;101213.00;;;20.09;50.46
72370;BME280;60343;-32.030;115.880;2022-09-19T05:09:13;101222.53;;;20.00;49.21
72370;BME280;60343;-32.030;115.880;2022-09-19T05:11:42;101214.31;;;20.25;49.67
72370;BME280;60343;-32.030;115.880;2022-09-19T05:14:10;101227.22;;;20.29;49.00
72370;BME280;60343;-32.030;115.880;2022-09-19T05:16:38;101242.44;;;20.12;49.50
72370;BME280;60343;-32.030;115.880;2022-09-19T05:19:08;101232.41;;;20.12;50.22
72370;BME280;60343;-32.030;115.880;2022-09-19T05:21:36;101224.81;;;20.21;49.83
72370;BME280;60343;-32.030;115.880;2022-09-19T05:24:05;101233.47;;;20.36;52.17
72370;BME280;60343;-32.030;115.880;2022-09-19T05:26:39;101249.41;;;20.99;48.37
72370;BME280;60343;-32.030;115.880;2022-09-19T05:29:07;101251.28;;;20.87;49.82
72370;BME280;60343;-32.030;115.880;2022-09-19T05:31:35;101247.72;;;20.68;50.70
72370;BME280;60343;-32.030;115.880;2022-09-19T05:34:03;101241.88;;;21.01;50.84
72370;BME280;60343;-32.030;115.880;2022-09-19T05:36:32;101247.25;;;21.49;50.15
72370;BME280;60343;-32.030;115.880;2022-09-19T05:39:00;101254.06;;;21.81;47.10
72370;BME280;60343;-32.030;115.880;2022-09-19T05:41:28;101261.50;;;21.03;50.14
72370;BME280;60343;-32.030;115.880;2022-09-19T05:44:02;101262.31;;;20.74;50.65
72370;BME280;60343;-32.030;115.880;2022-09-19T05:46:31;101265.16;;;21.15;48.38
72370;BME280;60343;-32.030;115.880;2022-09-19T05:48:59;101268.41;;;21.35;50.01
72370;BME280;60343;-32.030;115.880;2022-09-19T05:51:27;101265.09;;;20.85;49.45
72370;BME280;60343;-32.030;115.880;2022-09-19T05:53:55;101283.69;;;20.88;48.66
72370;BME280;60343;-32.030;115.880;2022-09-19T05:56:24;101276.69;;;20.20;52.19
72370;BME280;60343;-32.030;115.880;2022-09-19T05:58:53;101275.53;;;20.34;53.92
72370;BME280;60343;-32.030;115.880;2022-09-19T06:01:29;101289.06;;;20.40;53.41
72370;BME280;60343;-32.030;115.880;2022-09-19T06:03:57;101290.06;;;20.21;54.09
72370;BME280;60343;-32.030;115.880;2022-09-19T06:06:25;101300.47;;;20.06;53.65
72370;BME280;60343;-32.030;115.880;2022-09-19T06:08:56;101307.69;;;19.62;56.33
72370;BME280;60343;-32.030;115.880;2022-09-19T06:11:25;101311.41;;;19.68;56.92
72370;BME280;60343;-32.030;115.880;2022-09-19T06:13:54;101302.13;;;19.06;52.85
72370;BME280;60343;-32.030;115.880;2022-09-19T06:16:29;101314.16;;;19.23;54.36
72370;BME280;60343;-32.030;115.880;2022-09-19T06:18:57;101313.09;;;19.62;53.32
72370;BME280;60343;-32.030;115.880;2022-09-19T06:21:25;101308.53;;;20.37;54.32
72370;BME280;60343;-32.030;115.880;2022-09-19T06:23:57;101313.94;;;20.62;52.54
72370;BME280;60343;-32.030;115.880;2022-09-19T06:26:25;101301.91;;;20.70;53.41
72370;BME280;60343;-32.030;115.880;2022-09-19T06:28:54;101319.41;;;20.12;52.84
72370;BME280;60343;-32.030;115.880;2022-09-19T06:31:28;101324.13;;;19.99;50.55
72370;BME280;60343;-32.030;115.880;2022-09-19T06:33:59;101315.63;;;19.89;51.19
72370;BME280;60343;-32.030;115.880;2022-09-19T06:36:27;101318.38;;;20.38;50.92
72370;BME280;60343;-32.030;115.880;2022-09-19T06:38:56;101314.06;;;20.31;50.55
72370;BME280;60343;-32.030;115.880;2022-09-19T06:41:24;101307.03;;;21.14;47.77
72370;BME280;60343;-32.030;115.880;2022-09-19T06:43:52;101310.91;;;20.88;48.77
72370;BME280;60343;-32.030;115.880;2022-09-19T06:46:29;101333.38;;;20.66;51.37
72370;BME280;60343;-32.030;115.880;2022-09-19T06:48:57;101330.84;;;19.96;54.62
72370;BME280;60343;-32.030;115.880;2022-09-19T06:51:25;101332.66;;;19.40;57.20
72370;BME280;60343;-32.030;115.880;2022-09-19T06:53:54;101347.53;;;20.25;54.02
72370;BME280;60343;-32.030;115.880;2022-09-19T06:56:22;101362.44;;;20.47;51.35
72370;BME280;60343;-32.030;115.880;2022-09-19T06:58:50;101349.81;;;20.28;51.50
72370;BME280;60343;-32.030;115.880;2022-09-19T07:01:19;101346.66;;;20.55;50.94
72370;BME280;60343;-32.030;115.880;2022-09-19T07:03:55;101357.69;;;20.79;49.33
72370;BME280;60343;-32.030;115.880;2022-09-19T07:06:23;101354.00;;;20.73;47.43
72370;BME280;60343;-32.030;115.880;2022-09-19T07:08:51;101372.28;;;20.84;48.87
72370;BME280;60343;-32.030;115.880;2022-09-19T07:11:19;101366.94;;;21.14;47.44
72370;BME280;60343;-32.030;115.880;2022-09-19T07:13:50;101373.16;;;21.81;48.16
72370;BME280;60343;-32.030;115.880;2022-09-19T07:16:18;101369.25;;;22.18;45.95
72370;BME280;60343;-32.030;115.880;2022-09-19T07:18:54;101379.88;;;21.97;46.29
72370;BME280;60343;-32.030;115.880;2022-09-19T07:21:22;101385.69;;;21.04;49.46
72370;BME280;60343;-32.030;115.880;2022-09-19T07:23:50;101394.97;;;20.35;51.53
72370;BME280;60343;-32.030;115.880;2022-09-19T07:26:19;101386.63;;;19.67;51.35
72370;BME280;60343;-32.030;115.880;2022-09-19T07:28:47;101409.00;;;20.01;51.75
72370;BME280;60343;-32.030;115.880;2022-09-19T07:31:15;101415.84;;;20.10;49.61
72370;BME280;60343;-32.030;115.880;2022-09-19T07:33:44;101422.88;;;20.18;51.04
72370;BME280;60343;-32.030;115.880;2022-09-19T07:36:18;101414.97;;;19.85;51.04
72370;BME280;60343;-32.030;115.880;2022-09-19T07:38:51;101422.44;;;18.74;54.12
72370;BME280;60343;-32.030;115.880;2022-09-19T07:41:19;101422.44;;;18.41;54.36
72370;BME280;60343;-32.030;115.880;2022-09-19T07:43:49;101433.50;;;18.20;54.77
72370;BME280;60343;-32.030;115.880;2022-09-19T07:46:18;101433.47;;;18.26;54.70
72370;BME280;60343;-32.030;115.880;2022-09-19T07:48:48;101439.28;;;18.04;54.40
72370;BME280;60343;-32.030;115.880;2022-09-19T07:51:23;101447.00;;;18.07;55.50
72370;BME280;60343;-32.030;115.880;2022-09-19T07:53:51;101469.06;;;17.84;58.35
72370;BME280;60343;-32.030;115.880;2022-09-19T07:56:19;101459.88;;;17.78;58.43
72370;BME280;60343;-32.030;115.880;2022-09-19T07:58:48;101448.31;;;18.63;56.84
72370;BME280;60343;-32.030;115.880;2022-09-19T08:01:17;101458.63;;;19.45;53.33
72370;BME280;60343;-32.030;115.880;2022-09-19T08:03:47;101477.72;;;18.93;55.28
72370;BME280;60343;-32.030;115.880;2022-09-19T08:06:23;101460.59;;;18.20;58.83
72370;BME280;60343;-32.030;115.880;2022-09-19T08:08:51;101467.78;;;17.80;60.87
72370;BME280;60343;-32.030;115.880;2022-09-19T08:11:20;101491.59;;;17.50;62.14
72370;BME280;60343;-32.030;115.880;2022-09-19T08:13:48;101490.75;;;17.49;61.37
72370;BME280;60343;-32.030;115.880;2022-09-19T08:16:17;101495.84;;;17.66;60.63
72370;BME280;60343;-32.030;115.880;2022-09-19T08:18:45;101484.88;;;17.80;59.27
72370;BME280;60343;-32.030;115.880;2022-09-19T08:21:13;101484.16;;;18.52;54.25
72370;BME280;60343;-32.030;115.880;2022-09-19T08:23:48;101498.16;;;18.49;52.51
72370;BME280;60343;-32.030;115.880;2022-09-19T08:26:16;101491.44;;;18.19;53.47
72370;BME280;60343;-32.030;115.880;2022-09-19T08:28:44;101509.38;;;18.46;53.13
72370;BME280;60343;-32.030;115.880;2022-09-19T08:31:15;101513.81;;;19.06;51.50
72370;BME280;60343;-32.030;115.880;2022-09-19T08:33:43;101522.97;;;19.25;51.25
72370;BME280;60343;-32.030;115.880;2022-09-19T08:36:13;101526.16;;;18.69;51.36
72370;BME280;60343;-32.030;115.880;2022-09-19T08:38:47;101536.63;;;18.12;52.86
72370;BME280;60343;-32.030;115.880;2022-09-19T08:41:35;101536.47;;;17.66;53.81
72370;BME280;60343;-32.030;115.880;2022-09-19T08:44:13;101542.38;;;17.82;54.91
72370;BME280;60343;-32.030;115.880;2022-09-19T08:46:50;101537.75;;;17.70;56.43
72370;BME280;60343;-32.030;115.880;2022-09-19T08:49:25;101569.22;;;17.43;56.22
72370;BME280;60343;-32.030;115.880;2022-09-19T08:51:58;101573.31;;;17.32;57.03
72370;BME280;60343;-32.030;115.880;2022-09-19T08:54:36;101582.38;;;17.18;56.91
72370;BME280;60343;-32.030;115.880;2022-09-19T08:57:12;101582.66;;;17.02;57.80
72370;BME280;60343;-32.030;115.880;2022-09-19T08:59:41;101588.66;;;16.97;56.62
72370;BME280;60343;-32.030;115.880;2022-09-19T09:02:22;101602.25;;;17.04;56.62
72370;BME280;60343;-32.030;115.880;2022-09-19T09:04:53;101595.16;;;17.03;56.09
72370;BME280;60343;-32.030;115.880;2022-09-19T09:07:30;101600.47;;;17.17;55.85
72370;BME280;60343;-32.030;115.880;2022-09-19T09:10:14;101610.31;;;17.25;55.75
72370;BME280;60343;-32.030;115.880;2022-09-19T09:12:44;101605.94;;;17.24;55.46
72370;BME280;60343;-32.030;115.880;2022-09-19T09:15:15;101606.56;;;17.26;54.74
72370;BME280;60343;-32.030;115.880;2022-09-19T09:17:56;101626.06;;;17.15;54.09
72370;BME280;60343;-32.030;115.880;2022-09-19T09:20:39;101619.63;;;16.95;54.80
72370;BME280;60343;-32.030;115.880;2022-09-19T09:23:14;101635.72;;;16.82;55.54
72370;BME280;60343;-32.030;115.880;2022-09-19T09:25:50;101643.13;;;16.73;54.84
72370;BME280;60343;-32.030;115.880;2022-09-19T09:28:26;101667.31;;;16.60;54.86
72370;BME280;60343;-32.030;115.880;2022-09-19T09:31:02;101662.09;;;16.58;54.60
72370;BME280;60343;-32.030;115.880;2022-09-19T09:33:35;101665.97;;;16.35;53.29
72370;BME280;60343;-32.030;115.880;2022-09-19T09:36:09;101660.47;;;16.28;53.99
72370;BME280;60343;-32.030;115.880;2022-09-19T09:38:42;101666.44;;;16.23;54.15
72370;BME280;60343;-32.030;115.880;2022-09-19T09:41:21;101668.56;;;16.28;53.35
72370;BME280;60343;-32.030;115.880;2022-09-19T09:44:00;101674.53;;;16.23;53.56
72370;BME280;60343;-32.030;115.880;2022-09-19T09:46:42;101674.34;;;16.10;52.68
72370;BME280;60343;-32.030;115.880;2022-09-19T09:49:15;101689.38;;;15.98;53.00
72370;BME280;60343;-32.030;115.880;2022-09-19T09:51:51;101693.19;;;15.89;54.21
72370;BME280;60343;-32.030;115.880;2022-09-19T09:54:43;101684.81;;;15.84;53.31
72370;BME280;60343;-32.030;115.880;2022-09-19T09:57:29;101701.25;;;15.74;52.71
72370;BME280;60343;-32.030;115.880;2022-09-19T09:59:58;101698.75;;;15.73;53.04
72370;BME280;60343;-32.030;115.880;2022-09-19T10:02:39;101699.31;;;15.68;53.80
72370;BME280;60343;-32.030;115.880;2022-09-19T10:05:14;101723.84;;;15.59;52.80
72370;BME280;60343;-32.030;115.880;2022-09-19T10:07:49;101718.81;;;15.56;53.08
72370;BME280;60343;-32.030;115.880;2022-09-19T10:10:22;101721.03;;;15.52;52.15
72370;BME280;60343;-32.030;115.880;2022-09-19T10:13:00;101729.66;;;15.48;51.76
72370;BME280;60343;-32.030;115.880;2022-09-19T10:15:30;101723.13;;;15.42;50.23
72370;BME280;60343;-32.030;115.880;2022-09-19T10:18:02;101731.75;;;15.37;50.61
72370;BME280;60343;-32.030;115.880;2022-09-19T10:20:36;101735.91;;;15.25;51.40
72370;BME280;60343;-32.030;115.880;2022-09-19T10:23:13;101740.66;;;15.23;51.38
72370;BME280;60343;-32.030;115.880;2022-09-19T10:25:42;101757.00;;;15.22;51.75
72370;BME280;60343;-32.030;115.880;2022-09-19T10:28:29;101766.66;;;15.16;52.48
72370;BME280;60343;-32.030;115.880;2022-09-19T10:31:00;101768.72;;;15.06;53.12
72370;BME280;60343;-32.030;115.880;2022-09-19T10:33:40;101777.91;;;14.97;52.90
72370;BME280;60343;-32.030;115.880;2022-09-19T10:36:18;101773.34;;;14.97;52.52
72370;BME280;60343;-32.030;115.880;2022-09-19T10:38:56;101780.44;;;14.90;53.12
72370;BME280;60343;-32.030;115.880;2022-09-19T10:41:25;101785.75;;;14.76;53.68
72370;BME280;60343;-32.030;115.880;2022-09-19T10:44:21;101786.59;;;14.76;53.16
72370;BME280;60343;-32.030;115.880;2022-09-19T10:47:26;101791.34;;;14.66;54.09
72370;BME280;60343;-32.030;115.880;2022-09-19T10:52:50;101798.28;;;14.60;53.96
72370;BME280;60343;-32.030;115.880;2022-09-19T10:55:21;101809.38;;;14.66;53.95
72370;BME280;60343;-32.030;115.880;2022-09-19T10:57:54;101811.09;;;14.58;55.16
72370;BME280;60343;-32.030;115.880;2022-09-19T11:00:49;101814.50;;;14.52;54.73
72370;BME280;60343;-32.030;115.880;2022-09-19T11:03:20;101819.56;;;14.47;54.70
72370;BME280;60343;-32.030;115.880;2022-09-19T11:06:03;101826.31;;;14.43;55.55
72370;BME280;60343;-32.030;115.880;2022-09-19T11:08:38;101833.50;;;14.35;55.63
72370;BME280;60343;-32.030;115.880;2022-09-19T11:11:21;101832.88;;;14.41;55.19
72370;BME280;60343;-32.030;115.880;2022-09-19T11:14:07;101834.03;;;14.30;56.09
72370;BME280;60343;-32.030;115.880;2022-09-19T11:16:50;101841.94;;;14.24;56.27
72370;BME280;60343;-32.030;115.880;2022-09-19T11:19:26;101852.56;;;14.25;56.30
72370;BME280;60343;-32.030;115.880;2022-09-19T11:22:08;101854.25;;;14.26;56.37
72370;BME280;60343;-32.030;115.880;2022-09-19T11:24:54;101858.13;;;14.15;56.70
72370;BME280;60343;-32.030;115.880;2022-09-19T11:27:51;101871.09;;;14.04;57.34
72370;BME280;60343;-32.030;115.880;2022-09-19T11:30:24;101875.97;;;14.00;57.16
72370;BME280;60343;-32.030;115.880;2022-09-19T11:33:10;101883.38;;;13.98;57.58
72370;BME280;60343;-32.030;115.880;2022-09-19T11:35:50;101882.19;;;14.01;57.70
72370;BME280;60343;-32.030;115.880;2022-09-19T11:38:29;101883.22;;;13.92;58.05
72370;BME280;60343;-32.030;115.880;2022-09-19T11:41:23;101885.03;;;13.83;58.63
72370;BME280;60343;-32.030;115.880;2022-09-19T11:44:04;101875.44;;;13.64;59.66
72370;BME280;60343;-32.030;115.880;2022-09-19T11:46:46;101888.72;;;13.50;60.42
72370;BME280;60343;-32.030;115.880;2022-09-19T11:49:46;101897.56;;;13.34;60.88
72370;BME280;60343;-32.030;115.880;2022-09-19T11:52:24;101897.56;;;13.26;61.49
72370;BME280;60343;-32.030;115.880;2022-09-19T11:55:14;101903.44;;;13.21;61.39
72370;BME280;60343;-32.030;115.880;2022-09-19T11:57:48;101909.78;;;13.12;61.55
72370;BME280;60343;-32.030;115.880;2022-09-19T12:00:24;101911.41;;;13.05;62.99
72370;BME280;60343;-32.030;115.880;2022-09-19T12:03:13;101918.03;;;12.93;63.69
72370;BME280;60343;-32.030;115.880;2022-09-19T12:08:46;101926.72;;;12.79;62.82
72370;BME280;60343;-32.030;115.880;2022-09-19T12:11:22;101922.25;;;12.87;62.99
72370;BME280;60343;-32.030;115.880;2022-09-19T12:13:54;101924.56;;;12.82;63.22
72370;BME280;60343;-32.030;115.880;2022-09-19T12:16:31;101939.59;;;12.67;64.50
72370;BME280;60343;-32.030;115.880;2022-09-19T12:19:04;101937.31;;;12.55;65.79
72370;BME280;60343;-32.030;115.880;2022-09-19T12:21:44;101940.94;;;12.45;66.34
72370;BME280;60343;-32.030;115.880;2022-09-19T12:24:19;101945.69;;;12.52;64.29
72370;BME280;60343;-32.030;115.880;2022-09-19T12:26:55;101950.59;;;12.56;64.33
72370;BME280;60343;-32.030;115.880;2022-09-19T12:29:29;101958.94;;;12.53;64.85
72370;BME280;60343;-32.030;115.880;2022-09-19T12:32:03;101957.66;;;12.57;63.71
72370;BME280;60343;-32.030;115.880;2022-09-19T12:34:37;101972.38;;;12.53;64.48
72370;BME280;60343;-32.030;115.880;2022-09-19T12:37:22;101966.84;;;12.55;63.70
72370;BME280;60343;-32.030;115.880;2022-09-19T12:40:12;101969.50;;;12.72;62.50
72370;BME280;60343;-32.030;115.880;2022-09-19T12:42:48;101970.88;;;12.76;62.90
72370;BME280;60343;-32.030;115.880;2022-09-19T12:45:27;101969.50;;;12.72;63.07
72370;BME280;60343;-32.030;115.880;2022-09-19T12:48:05;101978.47;;;12.81;62.74
72370;BME280;60343;-32.030;115.880;2022-09-19T12:50:41;101981.44;;;12.78;63.50
72370;BME280;60343;-32.030;115.880;2022-09-19T12:53:25;101983.97;;;12.79;63.90
72370;BME280;60343;-32.030;115.880;2022-09-19T12:56:02;101982.75;;;13.17;61.58
72370;BME280;60343;-32.030;115.880;2022-09-19T12:58:38;101979.88;;;13.53;60.13
72370;BME280;60343;-32.030;115.880;2022-09-19T13:01:18;101984.31;;;13.86;59.53
72370;BME280;60343;-32.030;115.880;2022-09-19T13:03:53;101985.84;;;13.97;58.85
72370;BME280;60343;-32.030;115.880;2022-09-19T13:06:27;101984.00;;;14.05;58.80
72370;BME280;60343;-32.030;115.880;2022-09-19T13:09:05;101990.59;;;14.11;59.79